Time;durP1;ratioP1;P1;durP2;ratioP2;P2;SDS_P1;SDS_P2;PMS_P1;PMS_P2;Temp;Humidity;BMP_temperature;BMP_pressure;BME280_temperature;BME280_humidity;BME280_pressure;Samples;Min_cycle;Max_cycle;Signal;HPM_P1;HPM_P2
2023/05/08 00:01:47;;;;;;;11.07;4.72;;;;;;;13.77;77.36;94991.69;5004627;28;20173;-79
2023/05/08 00:04:13;;;;;;;10.55;5.88;;;;;;;13.79;77.20;95006.31;5005746;28;20177;-79
2023/05/08 00:06:38;;;;;;;13.97;5.10;;;;;;;13.55;77.43;94976.34;5006718;28;20161;-79
2023/05/08 00:09:03;;;;;;;9.45;5.05;;;;;;;13.72;78.02;95002.97;5006386;28;20176;-79
2023/05/08 00:11:29;;;;;;;11.70;5.45;;;;;;;13.53;78.02;94985.53;5006425;28;20168;-79
2023/05/08 00:13:54;;;;;;;8.75;5.28;;;;;;;13.41;78.45;94985.50;5002430;28;20180;-79
2023/05/08 00:16:20;;;;;;;8.37;5.30;;;;;;;13.47;78.35;94992.53;4989116;28;20200;-79
2023/05/08 00:18:45;;;;;;;7.50;4.50;;;;;;;13.55;78.52;95008.09;5004803;28;20168;-79
2023/05/08 00:21:11;;;;;;;8.60;6.00;;;;;;;13.57;78.37;95010.53;5012031;28;20565;-79
2023/05/08 00:23:36;;;;;;;10.53;5.57;;;;;;;13.56;78.51;95012.34;5005047;28;20180;-79
2023/05/08 00:26:01;;;;;;;20.73;6.60;;;;;;;13.55;78.54;95015.22;5004264;28;20176;-79
2023/05/08 00:28:27;;;;;;;10.33;6.73;;;;;;;13.36;78.83;95009.16;5004619;28;20419;-79
2023/05/08 00:30:52;;;;;;;9.97;5.97;;;;;;;13.30;79.53;95019.84;5006365;28;20451;-79
2023/05/08 00:33:18;;;;;;;7.23;5.20;;;;;;;13.19;79.37;95003.69;5005250;28;20177;-79
2023/05/08 00:35:43;;;;;;;6.53;4.95;;;;;;;13.19;79.25;94993.13;5005950;28;20208;-79
2023/05/08 00:38:09;;;;;;;9.07;5.27;;;;;;;13.28;79.25;95006.84;5005120;28;20231;-79
2023/05/08 00:40:35;;;;;;;8.50;5.17;;;;;;;13.38;79.05;95020.34;4985436;28;20204;-79
2023/05/08 00:43:00;;;;;;;7.28;5.13;;;;;;;13.35;78.84;95022.59;5001476;28;20367;-79
2023/05/08 00:45:35;;;;;;;16.90;5.53;;;;;;;13.35;78.62;95015.47;5005965;28;20251;-79
2023/05/08 00:48:01;;;;;;;16.77;6.03;;;;;;;13.32;78.84;95021.22;4993929;28;20239;-79
2023/05/08 00:50:26;;;;;;;18.80;5.50;;;;;;;13.25;78.65;95009.09;5005483;28;20644;-79
2023/05/08 00:52:52;;;;;;;20.57;6.27;;;;;;;13.19;79.12;95014.28;5003681;28;20560;-79
2023/05/08 00:55:18;;;;;;;18.50;6.00;;;;;;;13.17;79.20;95023.44;5003821;28;20173;-79
2023/05/08 00:57:46;;;;;;;13.97;5.67;;;;;;;13.10;79.39;95020.03;5003061;28;21790;-79
2023/05/08 01:00:12;;;;;;;9.07;4.93;;;;;;;13.11;79.37;95029.59;5007819;28;20173;-79
2023/05/08 01:02:39;;;;;;;13.30;5.67;;;;;;;12.97;79.20;95015.75;5002892;28;20645;-79
2023/05/08 01:05:05;;;;;;;11.60;5.77;;;;;;;13.00;79.52;95025.84;5004506;28;20224;-79
2023/05/08 01:07:31;;;;;;;10.97;6.03;;;;;;;13.01;79.61;95027.47;4987951;28;20603;-78
2023/05/08 01:09:57;;;;;;;11.27;4.83;;;;;;;12.90;79.67;95025.56;5004111;28;20239;-78
2023/05/08 01:12:40;;;;;;;8.63;4.93;;;;;;;12.91;79.91;95023.72;5003631;28;20181;-78
2023/05/08 01:15:12;;;;;;;12.87;5.10;;;;;;;12.86;80.36;95032.31;4998359;28;20505;-78
2023/05/08 01:17:43;;;;;;;11.23;6.03;;;;;;;12.68;80.96;95034.97;5012557;28;20497;-78
2023/05/08 01:20:27;;;;;;;9.93;5.40;;;;;;;12.71;80.86;95037.94;5005449;28;20683;-78
2023/05/08 01:23:22;;;;;;;11.27;5.40;;;;;;;12.62;80.75;95014.72;5005400;28;20180;-78
2023/05/08 01:25:47;;;;;;;11.27;5.10;;;;;;;12.72;80.70;95025.56;4986792;28;20173;-78
2023/05/08 01:28:50;;;;;;;8.17;5.00;;;;;;;12.67;80.99;95023.59;5013017;28;20534;-78
2023/05/08 01:31:31;;;;;;;7.35;5.38;;;;;;;12.67;81.16;95026.22;5005436;28;20474;-78
2023/05/08 01:34:05;;;;;;;7.65;5.45;;;;;;;12.42;81.79;95031.56;5012377;28;20410;-78
2023/05/08 01:36:52;;;;;;;8.13;4.77;;;;;;;12.47;82.15;95033.53;4998196;28;20204;-78
2023/05/08 01:39:44;;;;;;;8.63;5.57;;;;;;;12.44;81.82;95026.88;4995605;28;20224;-78
2023/05/08 01:42:18;;;;;;;10.83;4.83;;;;;;;12.43;81.71;95022.63;5003193;28;20362;-78
2023/05/08 01:44:50;;;;;;;7.47;5.03;;;;;;;12.40;81.91;95017.75;5000991;28;20603;-78
2023/05/08 01:47:19;;;;;;;12.13;5.10;;;;;;;12.30;82.16;95008.72;5002594;28;20173;-78
2023/05/08 01:49:48;;;;;;;9.10;5.30;;;;;;;12.33;82.38;95014.38;5003827;28;20184;-78
2023/05/08 01:52:22;;;;;;;6.70;4.53;;;;;;;12.11;82.59;94997.31;5009609;28;20259;-78
2023/05/08 01:54:56;;;;;;;7.13;4.63;;;;;;;11.96;82.59;94971.25;5002364;28;20182;-78
2023/05/08 01:57:25;;;;;;;8.60;4.87;;;;;;;12.26;82.68;95016.28;5004040;28;20208;-78
2023/05/08 01:59:53;;;;;;;8.97;4.37;;;;;;;12.24;82.52;95025.44;5000318;28;20181;-78
2023/05/08 02:02:19;;;;;;;7.87;5.90;;;;;;;12.24;82.57;95026.25;5002695;28;20172;-78
2023/05/08 02:04:46;;;;;;;7.17;4.83;;;;;;;12.20;82.56;95003.13;5011469;28;20698;-78
2023/05/08 02:07:12;;;;;;;10.60;5.00;;;;;;;12.21;82.44;95016.09;5004664;28;20248;-78
2023/05/08 02:09:39;;;;;;;6.83;4.40;;;;;;;12.03;82.55;94984.38;5004427;28;20248;-78
2023/05/08 02:12:07;;;;;;;10.20;5.07;;;;;;;12.20;82.67;95017.13;5004332;28;20173;-78
2023/05/08 02:14:35;;;;;;;9.77;4.77;;;;;;;12.11;82.79;95010.50;4994740;28;20185;-78
2023/05/08 02:17:02;;;;;;;7.23;4.47;;;;;;;12.18;83.14;95023.66;5004213;28;20756;-78
2023/05/08 02:19:29;;;;;;;10.00;5.13;;;;;;;12.20;82.73;95017.13;4980324;28;20184;-78
2023/05/08 02:21:57;;;;;;;10.60;5.28;;;;;;;12.20;82.82;95019.75;5009607;28;20422;-77
2023/05/08 02:24:24;;;;;;;6.13;4.60;;;;;;;12.07;82.82;95023.34;5004021;28;20203;-77
2023/05/08 02:26:53;;;;;;;10.77;5.10;;;;;;;12.13;83.13;95028.75;5004086;28;20169;-78
2023/05/08 02:29:20;;;;;;;7.93;5.17;;;;;;;12.05;83.21;95014.00;5004112;28;20184;-77
2023/05/08 02:31:47;;;;;;;8.60;4.77;;;;;;;12.08;83.27;95027.59;4976524;28;20185;-78
2023/05/08 02:34:12;;;;;;;9.30;5.10;;;;;;;11.96;83.17;95004.75;5005472;28;20234;-77
2023/05/08 02:36:38;;;;;;;7.23;4.80;;;;;;;12.04;83.33;95018.47;5007013;28;20275;-77
2023/05/08 02:39:05;;;;;;;9.37;4.30;;;;;;;11.89;83.46;94991.63;5010207;28;20551;-78
2023/05/08 02:41:32;;;;;;;8.33;4.73;;;;;;;11.91;83.38;95012.50;4993162;28;20221;-78
2023/05/08 02:43:58;;;;;;;8.13;5.00;;;;;;;11.98;83.43;95024.63;5001555;28;20256;-78
2023/05/08 02:46:34;;;;;;;7.13;4.80;;;;;;;11.93;83.63;95031.56;5001837;28;20597;-78
2023/05/08 02:49:40;;;;;;;7.93;4.87;;;;;;;11.94;83.99;95033.97;5011920;28;20183;-78
2023/05/08 02:52:16;;;;;;;11.40;4.57;;;;;;;11.92;83.80;95030.78;5002971;28;20188;-77
2023/05/08 02:55:02;;;;;;;9.30;5.60;;;;;;;11.93;84.21;95034.22;4992961;28;20259;-78
2023/05/08 02:57:46;;;;;;;6.20;4.43;;;;;;;11.79;84.25;95011.56;5001267;28;20243;-78
2023/05/08 03:00:19;;;;;;;7.87;5.40;;;;;;;11.95;84.40;95029.50;5001362;28;20211;-78
2023/05/08 03:03:07;;;;;;;10.60;4.90;;;;;;;11.95;84.03;95029.50;4983680;28;20185;-78
2023/05/08 03:05:35;;;;;;;9.77;5.37;;;;;;;11.89;83.98;95018.00;4997978;28;20218;-78
2023/05/08 03:08:09;;;;;;;9.87;4.80;;;;;;;12.00;83.85;95033.13;4996016;28;20212;-78
2023/05/08 03:10:37;;;;;;;9.73;5.40;;;;;;;12.04;83.87;95039.59;5003298;28;20273;-78
2023/05/08 03:13:06;;;;;;;13.60;5.17;;;;;;;12.03;83.48;95035.31;5007709;28;20239;-78
2023/05/08 03:15:53;;;;;;;11.57;6.17;;;;;;;11.96;83.87;95034.56;5001239;28;20192;-78
2023/05/08 03:18:24;;;;;;;8.73;4.80;;;;;;;11.78;84.11;95013.41;4994186;28;20169;-78
2023/05/08 03:20:53;;;;;;;8.53;4.93;;;;;;;11.89;84.15;95031.19;4983559;28;20235;-78
2023/05/08 03:23:20;;;;;;;10.65;6.22;;;;;;;11.94;84.13;95043.72;4991530;28;20424;-78
2023/05/08 03:25:46;;;;;;;7.63;5.10;;;;;;;11.88;84.12;95013.75;4978722;28;20536;-78
2023/05/08 03:28:12;;;;;;;8.40;4.97;;;;;;;11.88;83.96;95013.75;4993121;28;20184;-78
2023/05/08 03:30:40;;;;;;;16.33;5.20;;;;;;;11.91;84.22;95044.16;4996704;28;20215;-78
2023/05/08 03:33:07;;;;;;;8.87;5.23;;;;;;;11.84;84.42;95024.94;5005060;28;20645;-78
2023/05/08 03:35:36;;;;;;;9.00;5.50;;;;;;;12.00;84.61;95046.34;5004933;28;20287;-78
2023/05/08 03:38:03;;;;;;;24.43;5.90;;;;;;;12.03;84.45;95047.72;5005043;28;20571;-78
2023/05/08 03:40:29;;;;;;;9.30;5.70;;;;;;;12.14;84.30;95049.66;5011970;28;20214;-78
2023/05/08 03:42:55;;;;;;;8.63;5.37;;;;;;;12.21;84.14;95039.84;5004678;28;20228;-78
2023/05/08 03:45:22;;;;;;;8.17;5.47;;;;;;;12.18;83.71;95034.22;5001139;28;20550;-78
2023/05/08 03:47:48;;;;;;;10.10;5.63;;;;;;;12.21;83.84;95036.41;5015927;28;20188;-79
2023/05/08 03:50:14;;;;;;;8.03;5.13;;;;;;;12.30;83.94;95020.09;5006462;28;20243;-78
2023/05/08 03:52:40;;;;;;;9.63;6.00;;;;;;;12.54;83.56;95049.34;4996284;28;20683;-78
2023/05/08 03:55:06;;;;;;;8.60;5.70;;;;;;;12.62;83.02;95049.84;5001550;28;20177;-78
2023/05/08 03:57:39;;;;;;;10.80;6.20;;;;;;;12.71;82.42;95050.38;5006733;28;20192;-78
2023/05/08 04:00:09;;;;;;;9.67;5.77;;;;;;;12.86;82.67;95048.19;5006867;28;20322;-78
2023/05/08 04:02:48;;;;;;;11.20;6.17;;;;;;;13.01;82.33;95056.53;5010705;28;20223;-78
2023/05/08 04:05:23;;;;;;;17.43;6.17;;;;;;;13.20;81.82;95060.81;5004519;28;20174;-78
2023/05/08 04:07:55;;;;;;;10.10;5.70;;;;;;;13.21;80.40;95056.34;5004616;28;20235;-78
2023/05/08 04:10:31;;;;;;;7.00;5.27;;;;;;;13.30;80.23;95059.50;4996001;28;20165;-78
2023/05/08 04:13:03;;;;;;;13.13;5.70;;;;;;;13.37;80.13;95049.63;5014749;28;20172;-78
2023/05/08 04:15:32;;;;;;;10.27;4.83;;;;;;;13.52;79.28;95068.56;5010373;28;20255;-78
2023/05/08 04:18:03;;;;;;;9.17;5.37;;;;;;;13.65;78.90;95062.31;4986558;28;20188;-78
2023/05/08 04:20:30;;;;;;;11.17;5.30;;;;;;;13.80;79.07;95071.44;5005932;28;20256;-78
2023/05/08 04:22:57;;;;;;;11.67;5.57;;;;;;;13.92;79.22;95069.63;5011199;28;20181;-78
2023/05/08 04:25:23;;;;;;;14.57;5.88;;;;;;;13.96;79.19;95065.50;5004333;28;20177;-79
2023/05/08 04:27:50;;;;;;;10.13;5.53;;;;;;;14.03;78.80;95069.88;5012790;28;20262;-79
2023/05/08 04:30:16;;;;;;;9.73;5.80;;;;;;;13.97;77.76;95076.91;5007135;28;20172;-79
2023/05/08 04:32:42;;;;;;;22.97;6.23;;;;;;;13.91;78.01;95062.75;5009983;28;20178;-78
2023/05/08 04:35:07;;;;;;;8.00;5.10;;;;;;;14.00;78.44;95063.22;5005454;28;20174;-79
2023/05/08 04:37:33;;;;;;;9.47;6.03;;;;;;;14.14;79.25;95074.41;5005450;28;20283;-79
2023/05/08 04:39:59;;;;;;;12.17;6.07;;;;;;;14.13;77.84;95067.50;5006414;28;20239;-79
2023/05/08 04:42:26;;;;;;;7.53;4.80;;;;;;;14.08;76.88;95048.84;5000960;28;20221;-79
2023/05/08 04:44:52;;;;;;;11.20;5.70;;;;;;;14.07;75.66;95044.59;5002629;28;20192;-79
2023/05/08 04:47:18;;;;;;;5.97;5.00;;;;;;;14.26;75.54;95065.47;4987766;28;20640;-79
2023/05/08 04:49:44;;;;;;;10.98;5.18;;;;;;;14.39;74.86;95050.41;5003868;28;20173;-79
2023/05/08 04:52:10;;;;;;;7.70;4.82;;;;;;;14.64;74.33;95064.22;5009347;28;20528;-79
2023/05/08 04:54:36;;;;;;;9.20;5.15;;;;;;;14.85;73.70;95058.34;5005868;28;20172;-79
2023/05/08 04:57:02;;;;;;;11.75;4.95;;;;;;;15.04;72.79;95057.19;5004396;28;20757;-79
2023/05/08 04:59:28;;;;;;;8.52;4.18;;;;;;;15.32;71.83;95067.03;4998211;28;20267;-79
2023/05/08 05:01:54;;;;;;;7.68;4.72;;;;;;;15.56;71.79;95059.03;5001016;28;20259;-79
2023/05/08 05:04:21;;;;;;;12.32;4.65;;;;;;;15.81;70.07;95057.66;5006017;28;20173;-79
2023/05/08 05:06:46;;;;;;;7.68;4.30;;;;;;;16.06;69.46;95065.28;5003759;28;20181;-79
2023/05/08 05:09:12;;;;;;;5.65;4.43;;;;;;;16.04;67.39;95038.16;5003522;28;20542;-79
2023/05/08 05:11:37;;;;;;;6.47;4.30;;;;;;;16.45;66.87;95063.50;5003562;28;20545;-79
2023/05/08 05:14:03;;;;;;;6.68;4.28;;;;;;;16.69;65.53;95056.19;5003712;28;20181;-79
2023/05/08 05:16:28;;;;;;;7.32;4.53;;;;;;;16.86;63.50;95058.84;5005453;28;20197;-79
2023/05/08 05:18:54;;;;;;;6.28;3.90;;;;;;;16.93;63.82;95051.50;5014835;28;20164;-79
2023/05/08 05:21:19;;;;;;;5.88;4.43;;;;;;;17.12;63.97;95057.34;5007784;28;20555;-79
2023/05/08 05:23:45;;;;;;;6.93;4.05;;;;;;;17.18;62.40;95035.06;5003063;28;20165;-79
2023/05/08 05:26:10;;;;;;;9.20;4.10;;;;;;;17.52;61.83;95057.84;4994728;28;20259;-79
2023/05/08 05:28:36;;;;;;;11.32;4.30;;;;;;;17.64;62.38;95034.56;5003335;28;20669;-79
2023/05/08 05:31:02;;;;;;;11.70;4.80;;;;;;;18.12;61.32;95069.41;5005496;28;20618;-80
2023/05/08 05:33:27;;;;;;;6.25;4.43;;;;;;;18.42;62.27;95057.16;5000455;28;20606;-79
2023/05/08 05:35:53;;;;;;;27.75;5.25;;;;;;;18.69;60.52;95066.97;5000551;28;20767;-79
2023/05/08 05:38:18;;;;;;;8.38;4.78;;;;;;;18.79;60.15;95049.19;5003942;28;20181;-79
2023/05/08 05:40:43;;;;;;;9.85;4.65;;;;;;;19.07;59.51;95061.38;5003421;28;20188;-79
2023/05/08 05:43:09;;;;;;;6.30;5.07;;;;;;;19.21;58.17;95053.69;5009219;28;20578;-79
2023/05/08 05:45:35;;;;;;;12.30;4.57;;;;;;;19.46;57.54;95063.72;5005520;28;20203;-79
2023/05/08 05:48:01;;;;;;;9.38;4.70;;;;;;;19.41;56.14;95064.47;5004837;28;20179;-79
2023/05/08 05:50:27;;;;;;;10.38;5.00;;;;;;;19.56;56.66;95061.09;5004620;28;20177;-79
2023/05/08 05:52:53;;;;;;;9.32;4.43;;;;;;;19.66;56.47;95042.44;5004783;28;20581;-79
2023/05/08 05:55:18;;;;;;;6.32;4.55;;;;;;;19.95;55.90;95056.94;4997277;28;20252;-79
2023/05/08 05:57:44;;;;;;;9.75;4.75;;;;;;;20.19;54.94;95062.59;4989871;28;20342;-80
2023/05/08 06:00:10;;;;;;;7.47;4.97;;;;;;;20.07;53.02;95056.69;5002054;28;20173;-79
2023/05/08 06:02:36;;;;;;;9.05;5.43;;;;;;;19.95;53.70;95050.78;5007569;28;20189;-80
2023/05/08 06:05:01;;;;;;;12.43;5.75;;;;;;;19.76;54.96;95037.13;5003475;28;20164;-80
2023/05/08 06:07:27;;;;;;;9.30;5.10;;;;;;;19.75;56.00;95048.88;5002347;28;20180;-79
2023/05/08 06:09:53;;;;;;;8.38;4.18;;;;;;;19.64;56.82;95015.16;5000659;28;20176;-80
2023/05/08 06:12:19;;;;;;;8.85;4.80;;;;;;;19.72;55.19;95032.59;5006992;28;20164;-80
2023/05/08 06:14:44;;;;;;;5.50;4.03;;;;;;;19.76;54.93;95039.78;4995682;28;20176;-79
2023/05/08 06:17:10;;;;;;;8.85;4.40;;;;;;;19.59;55.02;95023.19;5013263;28;20195;-80
2023/05/08 06:19:35;;;;;;;13.88;4.47;;;;;;;19.59;57.16;95020.50;5001086;28;20173;-79
2023/05/08 06:22:01;;;;;;;5.65;4.72;;;;;;;19.73;57.03;95048.31;5010918;28;20168;-80
2023/05/08 06:24:27;;;;;;;12.95;4.80;;;;;;;19.49;56.68;95018.59;5000428;28;20204;-80
2023/05/08 06:26:52;;;;;;;8.07;3.85;;;;;;;19.60;57.01;95030.13;5002312;28;20661;-80
2023/05/08 06:29:17;;;;;;;5.35;4.25;;;;;;;19.53;56.28;95019.69;4997450;28;20582;-81
2023/05/08 06:31:43;;;;;;;7.80;4.15;;;;;;;19.64;56.91;95046.41;5010000;28;20743;-77
2023/05/08 06:34:09;;;;;;;7.50;3.83;;;;;;;19.60;56.12;95043.50;4999158;28;20902;-77
2023/05/08 06:36:35;;;;;;;9.93;4.35;;;;;;;19.47;56.89;95033.25;5000692;28;20227;-79
2023/05/08 06:39:04;;;;;;;9.57;4.25;;;;;;;19.60;57.66;95046.16;4998714;28;20190;-80
2023/05/08 06:41:29;;;;;;;5.68;3.97;;;;;;;19.54;54.54;95044.53;4994692;28;20243;-78
2023/05/08 06:43:54;;;;;;;10.30;4.28;;;;;;;19.70;57.71;95043.53;5001678;28;20627;-79
2023/05/08 06:46:20;;;;;;;6.70;3.88;;;;;;;20.08;55.95;95046.78;4998913;28;20174;-79
2023/05/08 06:48:46;;;;;;;7.45;4.03;;;;;;;20.40;53.92;95039.38;4998037;28;20180;-79
2023/05/08 06:51:11;;;;;;;10.23;4.68;;;;;;;20.66;54.16;95048.22;5002072;28;20164;-79
2023/05/08 06:53:36;;;;;;;5.55;3.70;;;;;;;20.73;51.09;95043.38;5003172;28;20262;-78
2023/05/08 06:56:02;;;;;;;6.82;4.50;;;;;;;20.50;51.26;95052.75;5012234;28;20191;-78
2023/05/08 06:58:28;;;;;;;10.68;5.25;;;;;;;20.10;52.58;95042.00;5004528;28;20567;-79
2023/05/08 07:00:53;;;;;;;5.95;4.60;;;;;;;19.63;53.33;95026.94;5005736;28;20184;-79
2023/05/08 07:03:18;;;;;;;6.93;4.22;;;;;;;19.31;54.85;95035.06;4985326;28;20296;-79
2023/05/08 07:05:44;;;;;;;8.35;4.75;;;;;;;19.08;58.00;95044.31;4998095;28;20691;-80
2023/05/08 07:08:09;;;;;;;5.70;4.28;;;;;;;18.96;56.90;95049.03;5001713;28;20617;-79
2023/05/08 07:10:36;;;;;;;10.35;4.63;;;;;;;18.83;58.66;95036.97;4996881;28;20613;-79
2023/05/08 07:13:01;;;;;;;8.90;4.30;;;;;;;19.03;59.44;95048.78;5000717;28;20160;-79
2023/05/08 07:15:27;;;;;;;7.18;4.10;;;;;;;19.20;58.56;95042.22;5001910;28;20179;-80
2023/05/08 07:17:53;;;;;;;9.07;4.55;;;;;;;19.28;58.63;95024.13;5003390;28;20176;-79
2023/05/08 07:20:19;;;;;;;7.95;5.50;;;;;;;19.43;57.96;95048.19;5004730;28;20181;-80
2023/05/08 07:22:45;;;;;;;8.60;4.95;;;;;;;19.52;56.98;95049.34;4997283;28;20188;-80
2023/05/08 07:25:11;;;;;;;12.48;8.88;;;;;;;19.44;56.85;95028.44;5000559;28;20236;-80
2023/05/08 07:27:36;;;;;;;13.63;6.15;;;;;;;19.54;57.15;95041.88;5000415;28;20256;-80
2023/05/08 07:30:03;;;;;;;18.17;5.68;;;;;;;19.59;58.84;95045.34;4998618;28;20252;-79
2023/05/08 07:32:30;;;;;;;8.50;4.35;;;;;;;19.58;57.03;95035.72;5005367;28;20165;-80
2023/05/08 07:34:55;;;;;;;6.00;3.65;;;;;;;19.81;58.05;95053.16;5001500;28;20187;-79
2023/05/08 07:37:21;;;;;;;9.48;4.63;;;;;;;19.96;55.93;95055.88;4997866;28;20199;-80
2023/05/08 07:39:47;;;;;;;10.68;4.15;;;;;;;19.75;56.79;95029.38;5000222;28;20246;-80
2023/05/08 07:42:12;;;;;;;11.93;4.15;;;;;;;19.88;57.47;95039.56;5001242;28;20220;-80
2023/05/08 07:44:38;;;;;;;11.77;4.63;;;;;;;20.14;59.29;95056.44;4998588;28;20263;-80
2023/05/08 07:47:04;;;;;;;6.82;3.78;;;;;;;20.26;56.39;95046.28;4992847;28;20308;-81
2023/05/08 07:49:29;;;;;;;13.45;4.20;;;;;;;20.38;55.14;95025.47;4981540;28;20247;-79
2023/05/08 07:51:55;;;;;;;15.15;5.50;;;;;;;21.04;55.54;95063.66;4994647;28;20176;-81
2023/05/08 07:54:20;;;;;;;7.70;4.05;;;;;;;21.57;54.42;95064.06;4998891;28;20196;-79
2023/05/08 07:56:46;;;;;;;5.55;3.33;;;;;;;22.00;52.00;95056.38;4998798;28;20954;-81
2023/05/08 07:59:11;;;;;;;6.18;3.22;;;;;;;22.09;52.55;95060.91;5003782;28;20173;-81
2023/05/08 08:01:36;;;;;;;17.60;5.00;;;;;;;22.23;52.09;95041.50;5000305;28;20171;-80
2023/05/08 08:04:02;;;;;;;7.90;4.63;;;;;;;22.53;52.24;95060.84;4992978;28;20177;-82
2023/05/08 08:06:28;;;;;;;37.30;5.30;;;;;;;22.67;49.28;95057.53;4980165;28;20305;-81
2023/05/08 08:08:55;;;;;;;5.90;3.47;;;;;;;22.61;51.55;95055.97;4999005;28;20176;-81
2023/05/08 08:11:21;;;;;;;3.63;3.17;;;;;;;22.75;52.15;95060.44;4996290;28;20181;-82
2023/05/08 08:13:46;;;;;;;8.88;3.63;;;;;;;22.94;53.56;95044.41;5004160;28;20177;-83
2023/05/08 08:16:12;;;;;;;6.78;2.88;;;;;;;23.31;50.76;95065.28;4993066;28;20196;-81
2023/05/08 08:18:37;;;;;;;6.22;3.40;;;;;;;23.56;49.87;95040.81;5001592;28;20196;-84
2023/05/08 08:21:06;;;;;;;6.65;3.40;;;;;;;23.78;48.23;95042.19;5002285;28;20180;-81
2023/05/08 08:23:32;;;;;;;5.93;3.40;;;;;;;23.79;47.74;95058.00;4994360;28;20212;-80
2023/05/08 08:26:10;;;;;;;21.38;4.82;;;;;;;23.27;49.38;95051.59;5005407;28;20168;-80
2023/05/08 08:28:36;;;;;;;7.40;3.90;;;;;;;23.17;53.12;95056.28;5004257;28;20193;-78
2023/05/08 08:31:01;;;;;;;9.60;4.38;;;;;;;23.18;52.57;95041.75;5008466;28;20203;-79
2023/05/08 08:33:28;;;;;;;7.38;3.70;;;;;;;23.20;50.53;95043.06;5004767;28;20164;-82
2023/05/08 08:35:54;;;;;;;9.25;3.72;;;;;;;23.24;51.45;95037.94;5000944;28;20207;-79
2023/05/08 08:38:19;;;;;;;6.97;3.58;;;;;;;23.26;50.34;95027.72;5001300;28;20255;-80
2023/05/08 08:40:45;;;;;;;5.88;3.50;;;;;;;23.08;49.45;95028.44;5001408;28;20240;-80
2023/05/08 08:43:10;;;;;;;9.68;3.83;;;;;;;22.91;50.41;95031.56;5003865;28;20213;-80
2023/05/08 08:45:36;;;;;;;6.30;4.25;;;;;;;22.87;50.75;95030.53;5008952;28;20256;-78
2023/05/08 08:48:02;;;;;;;7.93;4.00;;;;;;;22.70;51.86;95016.69;5001112;28;20180;-77
2023/05/08 08:50:34;;;;;;;21.50;8.77;;;;;;;22.70;51.35;95016.69;4999648;28;20166;-76
2023/05/08 08:53:24;;;;;;;8.93;4.88;;;;;;;22.67;53.16;95017.25;5009997;28;20176;-78
2023/05/08 08:55:54;;;;;;;33.08;18.88;;;;;;;22.49;52.36;94997.28;5001250;28;20607;-83
2023/05/08 08:58:47;;;;;;;10.10;5.18;;;;;;;22.54;52.87;95003.44;5007184;28;20579;-80
2023/05/08 09:01:18;;;;;;;13.38;4.22;;;;;;;22.48;52.70;95003.75;5001429;28;20205;-82
2023/05/08 09:03:43;;;;;;;8.88;3.55;;;;;;;22.35;51.55;94999.03;5005468;28;20168;-79
2023/05/08 09:06:09;;;;;;;7.15;3.50;;;;;;;22.18;54.55;94989.50;5000852;28;20169;-78
2023/05/08 09:08:36;;;;;;;6.70;3.40;;;;;;;22.18;53.56;94999.41;5004866;28;20537;-79
2023/05/08 09:11:02;;;;;;;5.70;3.10;;;;;;;22.00;53.25;94978.63;5005768;28;20335;-79
2023/05/08 09:13:30;;;;;;;7.25;3.47;;;;;;;21.85;53.26;94982.19;5005179;28;20645;-78
2023/05/08 09:15:57;;;;;;;8.30;3.38;;;;;;;21.73;53.88;94968.31;5004874;28;20232;-78
2023/05/08 09:18:23;;;;;;;7.22;3.58;;;;;;;21.55;54.24;94958.25;4987649;28;20168;-78
2023/05/08 09:20:49;;;;;;;6.05;3.17;;;;;;;21.46;55.22;94961.50;5004757;28;20997;-80
2023/05/08 09:23:16;;;;;;;6.03;3.42;;;;;;;21.41;55.41;94955.38;4996084;28;20169;-82
2023/05/08 09:25:51;;;;;;;8.55;3.90;;;;;;;21.23;56.27;94935.38;5001437;28;20189;-78
2023/05/08 09:28:24;;;;;;;7.47;3.92;;;;;;;21.42;55.48;94965.03;5002685;28;20222;-86
2023/05/08 09:30:57;;;;;;;6.78;3.92;;;;;;;21.41;58.20;94958.06;5000073;28;21029;-82
2023/05/08 09:33:28;;;;;;;9.27;3.72;;;;;;;21.47;59.39;94962.31;5002224;28;20168;-80
2023/05/08 09:35:54;;;;;;;8.88;4.25;;;;;;;21.58;58.52;94969.22;4998686;28;20201;-80
2023/05/08 09:38:29;;;;;;;7.07;3.60;;;;;;;21.61;57.23;94986.63;5014250;28;20240;-81
2023/05/08 09:41:10;;;;;;;10.25;4.15;;;;;;;21.67;56.81;94988.19;4995424;28;20184;-80
2023/05/08 09:43:37;;;;;;;6.72;3.65;;;;;;;21.71;57.63;94983.88;4974812;28;20285;-79
2023/05/08 09:46:21;;;;;;;9.45;3.92;;;;;;;21.75;56.17;94984.94;4982953;28;20179;-81
2023/05/08 09:48:52;;;;;;;5.85;3.03;;;;;;;21.78;55.45;94981.72;4993432;28;20200;-79
2023/05/08 09:51:17;;;;;;;9.95;3.80;;;;;;;21.85;55.98;94982.19;4993448;28;20168;-80
2023/05/08 09:53:43;;;;;;;4.30;3.35;;;;;;;21.86;56.16;94957.00;4992057;28;20618;-79
2023/05/08 09:56:09;;;;;;;7.68;3.63;;;;;;;22.05;56.86;94968.69;4990250;28;20596;-80
2023/05/08 09:58:42;;;;;;;7.60;3.97;;;;;;;22.21;56.94;94969.38;4992836;28;20219;-79
2023/05/08 10:01:27;;;;;;;7.55;4.10;;;;;;;22.39;55.57;94973.25;4986110;28;20184;-79
2023/05/08 10:03:53;;;;;;;12.00;3.22;;;;;;;22.52;54.28;94969.91;4990656;28;20208;-79
2023/05/08 10:06:18;;;;;;;9.60;3.60;;;;;;;22.53;55.04;94966.13;4991348;28;20208;-79
2023/05/08 10:08:45;;;;;;;7.25;3.58;;;;;;;22.72;55.40;94979.66;4982861;28;20240;-79
2023/05/08 10:11:18;;;;;;;5.88;3.53;;;;;;;22.78;54.53;94979.34;4971897;28;20197;-80
2023/05/08 10:13:45;;;;;;;5.50;3.72;;;;;;;22.81;56.17;94973.41;4971733;28;20653;-80
2023/05/08 10:16:15;;;;;;;23.55;4.78;;;;;;;22.75;55.37;94953.03;4971185;28;20205;-80
2023/05/08 10:18:51;;;;;;;7.10;3.33;;;;;;;22.80;56.06;94969.13;4972359;28;20174;-80
2023/05/08 10:21:17;;;;;;;7.60;3.85;;;;;;;22.90;55.87;94960.97;4972139;28;20176;-80
2023/05/08 10:23:45;;;;;;;6.07;3.42;;;;;;;22.90;54.53;94958.28;4972368;28;20203;-79
2023/05/08 10:26:15;;;;;;;10.65;3.92;;;;;;;22.76;55.16;94919.75;4972007;28;20180;-79
2023/05/08 10:28:54;;;;;;;10.10;4.15;;;;;;;23.00;56.42;94951.19;4972200;28;20189;-79
2023/05/08 10:31:24;;;;;;;11.98;3.95;;;;;;;23.04;55.34;94949.53;4970046;28;20182;-79
2023/05/08 10:33:50;;;;;;;6.72;3.45;;;;;;;23.17;54.50;94955.00;4988290;28;20188;-79
2023/05/08 10:36:16;;;;;;;8.73;4.63;;;;;;;23.35;55.72;94955.34;4980183;28;20210;-79
2023/05/08 10:38:42;;;;;;;10.50;4.43;;;;;;;23.51;54.60;94951.41;4971638;28;20189;-79
2023/05/08 10:41:09;;;;;;;5.63;3.95;;;;;;;23.36;54.68;94935.41;4971795;28;20185;-79
2023/05/08 10:43:39;;;;;;;6.93;4.70;;;;;;;23.46;52.85;94936.09;4971583;28;20268;-79
2023/05/08 10:46:14;;;;;;;10.00;3.92;;;;;;;23.58;53.43;94949.16;4969788;28;20210;-79
2023/05/08 10:48:40;;;;;;;10.02;4.25;;;;;;;23.64;52.97;94946.09;4971566;28;20264;-80
2023/05/08 10:51:37;;;;;;;10.65;3.97;;;;;;;23.88;53.29;94939.81;4988401;28;20664;-79
2023/05/08 10:54:12;;;;;;;5.97;3.47;;;;;;;23.92;52.59;94933.59;4990321;28;20183;-80
2023/05/08 10:56:38;;;;;;;6.90;4.35;;;;;;;23.98;53.50;94937.78;4990211;28;20363;-80
2023/05/08 10:59:04;;;;;;;10.85;3.97;;;;;;;24.02;53.39;94927.25;4980943;28;20257;-79
2023/05/08 11:01:30;;;;;;;7.65;3.90;;;;;;;24.12;52.62;94939.75;4971055;28;20229;-79
2023/05/08 11:03:55;;;;;;;5.72;3.55;;;;;;;24.23;53.03;94933.91;4971451;28;20688;-79
2023/05/08 11:06:44;;;;;;;4.47;3.40;;;;;;;24.29;50.93;94926.56;4971361;28;20170;-79
2023/05/08 11:09:27;;;;;;;7.13;3.83;;;;;;;24.23;52.78;94914.28;4971514;28;20204;-79
2023/05/08 11:12:05;;;;;;;9.38;4.30;;;;;;;24.37;51.72;94915.94;4969829;28;20182;-79
2023/05/08 11:14:32;;;;;;;3.67;3.38;;;;;;;24.44;51.69;94899.41;4971520;28;20533;-79
2023/05/08 11:16:58;;;;;;;4.22;3.08;;;;;;;24.57;51.35;94911.25;4971614;28;20243;-79
2023/05/08 11:19:25;;;;;;;7.93;3.28;;;;;;;24.60;48.50;94898.00;4971554;28;20178;-79
2023/05/08 11:22:15;;;;;;;5.63;3.53;;;;;;;24.65;49.82;94897.13;4971503;28;20181;-78
2023/05/08 11:24:49;;;;;;;5.70;2.95;;;;;;;24.63;48.91;94891.25;4971472;28;20182;-79
2023/05/08 11:27:15;;;;;;;7.90;3.50;;;;;;;24.49;48.03;94890.41;4971359;28;20177;-79
2023/05/08 11:29:41;;;;;;;5.18;3.53;;;;;;;24.35;50.23;94891.19;4986939;28;20183;-79
2023/05/08 11:32:06;;;;;;;6.63;4.18;;;;;;;24.44;49.57;94891.31;4990058;28;20269;-80
2023/05/08 11:34:41;;;;;;;7.15;4.32;;;;;;;24.40;49.70;94883.03;4971327;28;20650;-79
2023/05/08 11:37:18;;;;;;;9.25;3.50;;;;;;;23.89;47.75;94868.81;4986050;28;20703;-79
2023/05/08 11:39:44;;;;;;;4.72;2.85;;;;;;;23.90;50.45;94878.47;4972293;28;20185;-79